createdAt,value
2023-02-19T00:01:13.682Z,9.58
2023-02-19T00:03:50.371Z,9.58
2023-02-19T00:06:20.940Z,9.54
2023-02-19T00:08:55.650Z,9.55
2023-02-19T00:11:28.265Z,9.57
2023-02-19T00:14:00.212Z,9.61
2023-02-19T00:16:33.631Z,9.65
2023-02-19T00:19:05.032Z,9.69
2023-02-19T00:21:35.796Z,9.69
2023-02-19T00:24:10.252Z,9.77
2023-02-19T00:26:42.548Z,9.82
2023-02-19T00:29:15.225Z,9.83
2023-02-19T00:31:46.009Z,9.87
2023-02-19T00:34:18.408Z,9.91
2023-02-19T00:36:48.768Z,9.92
2023-02-19T00:39:21.569Z,9.73
2023-02-19T00:41:51.611Z,9.94
2023-02-19T00:44:22.427Z,9.96
2023-02-19T00:46:52.710Z,9.95
2023-02-19T00:49:25.809Z,9.91
2023-02-19T00:51:56.248Z,9.78
2023-02-19T00:54:28.865Z,9.73
2023-02-19T00:56:58.755Z,9.65
2023-02-19T00:59:28.706Z,9.58
2023-02-19T01:01:58.730Z,9.55
2023-02-19T01:04:28.668Z,9.50
2023-02-19T01:06:59.033Z,9.51
2023-02-19T01:09:31.681Z,9.51
2023-02-19T01:12:01.814Z,9.47
2023-02-19T01:14:32.016Z,9.41
2023-02-19T01:17:02.199Z,9.37
2023-02-19T01:19:32.356Z,9.33
2023-02-19T01:22:02.639Z,9.28
2023-02-19T01:24:36.078Z,9.27
2023-02-19T01:27:06.647Z,9.22
2023-02-19T01:29:36.877Z,9.19
2023-02-19T01:32:07.145Z,9.18
2023-02-19T01:34:37.392Z,9.14
2023-02-19T01:37:11.319Z,9.10
2023-02-19T01:39:44.238Z,9.03
2023-02-19T01:42:17.873Z,8.97
2023-02-19T01:45:26.446Z,8.90
2023-02-19T01:48:10.646Z,8.81
2023-02-19T01:50:47.443Z,8.72
2023-02-19T01:53:22.314Z,8.67
2023-02-19T01:55:58.382Z,8.61
2023-02-19T01:58:33.346Z,8.58
2023-02-19T02:01:04.305Z,8.53
2023-02-19T02:03:35.418Z,8.49
2023-02-19T02:06:10.938Z,8.48
2023-02-19T02:08:54.343Z,8.46
2023-02-19T02:11:27.642Z,8.44
2023-02-19T02:13:57.907Z,8.33
2023-02-19T02:16:36.445Z,8.48
2023-02-19T02:19:23.853Z,8.55
2023-02-19T02:22:09.288Z,8.50
2023-02-19T02:25:09.191Z,8.58
2023-02-19T02:27:53.659Z,8.58
2023-02-19T02:30:36.149Z,8.55
2023-02-19T02:33:15.442Z,8.57
2023-02-19T02:35:50.508Z,8.58
2023-02-19T02:38:25.259Z,8.59
2023-02-19T02:40:58.732Z,8.60
2023-02-19T02:43:31.225Z,8.61
2023-02-19T02:46:03.923Z,8.64
2023-02-19T02:48:41.289Z,8.68
2023-02-19T02:51:18.998Z,8.69
2023-02-19T02:54:26.183Z,8.68
2023-02-19T02:57:02.652Z,8.73
2023-02-19T02:59:40.578Z,8.73
2023-02-19T03:02:14.981Z,8.74
2023-02-19T03:05:06.206Z,8.78
2023-02-19T03:07:41.636Z,8.82
2023-02-19T03:10:16.285Z,8.82
2023-02-19T03:13:01.040Z,8.91
2023-02-19T03:15:47.656Z,8.79
2023-02-19T03:18:34.642Z,8.93
2023-02-19T03:21:09.524Z,8.43
2023-02-19T03:23:54.523Z,7.82
2023-02-19T03:26:26.460Z,7.38
2023-02-19T03:29:11.668Z,7.09
2023-02-19T03:31:47.776Z,7.03
2023-02-19T03:34:26.245Z,6.82
2023-02-19T03:37:01.279Z,6.85
2023-02-19T03:39:32.036Z,6.79
2023-02-19T03:42:10.593Z,6.88
2023-02-19T03:44:45.847Z,6.83
2023-02-19T03:47:20.743Z,6.79
2023-02-19T03:50:01.722Z,6.71
2023-02-19T03:52:44.676Z,6.74
2023-02-19T03:55:20.023Z,6.73
2023-02-19T03:57:56.013Z,6.76
2023-02-19T04:00:33.036Z,6.77
2023-02-19T04:03:09.965Z,6.80
2023-02-19T04:05:48.170Z,6.80
2023-02-19T04:08:21.655Z,6.73
2023-02-19T04:10:58.243Z,6.66
2023-02-19T04:13:35.041Z,6.72
2023-02-19T04:16:11.979Z,6.61
2023-02-19T04:18:46.948Z,6.57
2023-02-19T04:21:20.056Z,6.57
2023-02-19T04:23:51.217Z,6.57
2023-02-19T04:26:24.648Z,6.66
2023-02-19T04:28:54.750Z,6.69
2023-02-19T04:31:26.255Z,6.73
2023-02-19T04:33:56.217Z,6.65
2023-02-19T04:36:29.042Z,6.63
2023-02-19T04:38:59.093Z,6.57
2023-02-19T04:41:29.070Z,6.48
2023-02-19T04:43:59.322Z,6.36
2023-02-19T04:46:29.653Z,6.26
2023-02-19T04:48:59.763Z,6.10
2023-02-19T04:51:32.502Z,5.99
2023-02-19T04:54:02.550Z,6.08
2023-02-19T04:56:32.524Z,5.99
2023-02-19T04:59:02.537Z,5.94
2023-02-19T05:01:32.791Z,6.01
2023-02-19T05:04:03.237Z,6.10
2023-02-19T05:06:36.385Z,5.91
2023-02-19T05:09:06.573Z,5.83
2023-02-19T05:11:36.634Z,5.81
2023-02-19T05:14:06.609Z,5.67
2023-02-19T05:16:36.520Z,5.54
2023-02-19T05:19:06.725Z,5.40
2023-02-19T05:21:39.630Z,5.41
2023-02-19T05:24:10.352Z,5.51
2023-02-19T05:26:40.450Z,5.54
2023-02-19T05:29:10.526Z,5.49
2023-02-19T05:31:40.478Z,5.56
2023-02-19T05:34:10.483Z,5.58
2023-02-19T05:36:43.803Z,5.63
2023-02-19T05:39:15.001Z,5.75
2023-02-19T05:41:45.099Z,5.67
2023-02-19T05:44:15.106Z,5.81
2023-02-19T05:46:45.091Z,5.78
2023-02-19T05:49:15.065Z,5.79
2023-02-19T05:51:47.816Z,5.83
2023-02-19T05:54:17.739Z,5.86
2023-02-19T05:56:47.680Z,5.80
2023-02-19T05:59:19.670Z,5.65
2023-02-19T06:01:50.604Z,5.57
2023-02-19T06:04:21.841Z,5.33
2023-02-19T06:06:54.436Z,5.12
2023-02-19T06:09:24.286Z,4.99
2023-02-19T06:11:54.207Z,4.88
2023-02-19T06:14:24.203Z,4.96
2023-02-19T06:16:54.110Z,4.91
2023-02-19T06:19:24.414Z,4.71
2023-02-19T06:21:57.075Z,4.70
2023-02-19T06:24:30.579Z,4.71
2023-02-19T06:27:00.613Z,4.78
2023-02-19T06:29:32.667Z,4.66
2023-02-19T06:32:02.773Z,4.52
2023-02-19T06:34:32.822Z,4.40
2023-02-19T06:37:05.670Z,4.28
2023-02-19T06:39:35.686Z,4.17
2023-02-19T06:42:06.358Z,4.10
2023-02-19T06:44:38.337Z,3.98
2023-02-19T06:47:08.460Z,3.92
2023-02-19T06:49:38.378Z,4.09
2023-02-19T06:52:11.343Z,4.15
2023-02-19T06:54:51.457Z,4.16
2023-02-19T06:57:21.505Z,4.25
2023-02-19T06:59:51.617Z,4.24
2023-02-19T07:02:21.876Z,4.29
2023-02-19T07:04:51.772Z,4.32
2023-02-19T07:07:24.516Z,4.34
2023-02-19T07:09:54.648Z,4.53
2023-02-19T07:12:24.729Z,4.75
2023-02-19T07:14:54.641Z,4.91
2023-02-19T07:17:24.690Z,5.01
2023-02-19T07:19:54.719Z,5.17
2023-02-19T07:22:29.325Z,5.33
2023-02-19T07:24:59.329Z,5.44
2023-02-19T07:27:29.403Z,5.43
2023-02-19T07:30:07.129Z,5.27
2023-02-19T07:32:37.557Z,5.17
2023-02-19T07:35:08.243Z,5.11
2023-02-19T07:37:40.954Z,5.10
2023-02-19T07:40:12.122Z,5.09
2023-02-19T07:42:42.517Z,5.12
2023-02-19T07:45:13.457Z,5.15
2023-02-19T07:47:43.529Z,5.18
2023-02-19T07:50:14.110Z,5.27
2023-02-19T07:52:46.834Z,5.41
2023-02-19T07:55:17.125Z,5.39
2023-02-19T07:57:47.103Z,5.49
2023-02-19T08:00:19.341Z,5.50
2023-02-19T08:03:01.940Z,5.50
2023-02-19T08:05:33.486Z,5.67
2023-02-19T08:08:08.125Z,5.77
2023-02-19T08:10:50.542Z,5.80
2023-02-19T08:13:23.461Z,5.80
2023-02-19T08:16:01.698Z,5.84
2023-02-19T08:18:38.097Z,5.91
2023-02-19T08:21:08.647Z,5.92
2023-02-19T08:23:41.682Z,5.97
2023-02-19T08:26:11.745Z,5.96
2023-02-19T08:28:42.130Z,5.94
2023-02-19T08:31:14.730Z,5.94
2023-02-19T08:33:44.989Z,5.98
2023-02-19T08:36:15.180Z,5.98
2023-02-19T08:38:48.360Z,6.02
2023-02-19T08:41:18.636Z,6.06
2023-02-19T08:43:48.863Z,6.06
2023-02-19T08:46:19.015Z,6.05
2023-02-19T08:48:49.288Z,5.96
2023-02-19T08:51:19.225Z,6.03
2023-02-19T08:53:51.968Z,6.00
2023-02-19T08:56:22.199Z,5.90
2023-02-19T08:58:52.239Z,6.01
2023-02-19T09:01:22.405Z,6.12
2023-02-19T09:03:52.651Z,6.20
2023-02-19T09:06:23.770Z,6.26
2023-02-19T09:08:56.434Z,6.21
2023-02-19T09:11:26.458Z,6.33
2023-02-19T09:13:59.419Z,6.38
2023-02-19T09:16:29.434Z,6.53
2023-02-19T09:18:59.428Z,6.61
2023-02-19T09:21:29.377Z,6.51
2023-02-19T09:24:02.226Z,6.62
2023-02-19T09:26:32.275Z,6.74
2023-02-19T09:29:05.468Z,6.72
2023-02-19T09:31:35.595Z,6.52
2023-02-19T09:34:05.793Z,6.42
2023-02-19T09:36:36.188Z,6.42
2023-02-19T09:39:12.671Z,6.46
2023-02-19T09:41:48.031Z,6.62
2023-02-19T09:44:26.312Z,7.01
2023-02-19T09:46:57.326Z,7.13
2023-02-19T09:49:31.656Z,7.10
2023-02-19T09:52:06.627Z,7.10
2023-02-19T09:54:40.983Z,7.43
2023-02-19T09:57:16.975Z,7.57
2023-02-19T09:59:50.915Z,7.45
2023-02-19T10:02:23.770Z,7.16
2023-02-19T10:04:54.974Z,7.15
2023-02-19T10:07:27.212Z,7.46
2023-02-19T10:10:02.889Z,7.80
2023-02-19T10:12:35.305Z,7.93
2023-02-19T10:15:13.830Z,7.93
2023-02-19T10:17:47.867Z,7.79
2023-02-19T10:20:22.494Z,7.55
2023-02-19T10:22:54.491Z,7.18
2023-02-19T10:25:27.280Z,7.20
2023-02-19T10:27:57.502Z,7.30
2023-02-19T10:30:30.860Z,7.45
2023-02-19T10:33:05.568Z,7.48
2023-02-19T10:35:40.915Z,7.45
2023-02-19T10:38:11.156Z,7.42
2023-02-19T10:40:48.044Z,7.44
2023-02-19T10:43:33.343Z,7.38
2023-02-19T10:46:06.536Z,7.50
2023-02-19T10:48:40.499Z,7.87
2023-02-19T10:51:20.957Z,8.18
2023-02-19T10:53:53.071Z,8.20
2023-02-19T10:56:31.541Z,8.29
2023-02-19T10:59:18.286Z,8.26
2023-02-19T11:01:59.891Z,8.03
2023-02-19T11:04:34.256Z,7.86
2023-02-19T11:07:11.780Z,7.73
2023-02-19T11:09:45.298Z,7.81
2023-02-19T11:12:28.234Z,7.85
2023-02-19T11:14:58.965Z,7.96
2023-02-19T11:17:31.342Z,7.78
2023-02-19T11:20:05.693Z,7.64
2023-02-19T11:22:38.438Z,7.44
2023-02-19T11:25:18.160Z,7.37
2023-02-19T11:28:02.764Z,7.72
2023-02-19T11:30:37.175Z,7.99
2023-02-19T11:33:27.705Z,7.96
2023-02-19T11:36:23.871Z,7.53
2023-02-19T11:38:54.085Z,7.43
2023-02-19T11:41:38.263Z,7.25
2023-02-19T11:44:25.844Z,7.36
2023-02-19T11:47:19.409Z,7.37
2023-02-19T11:50:01.008Z,7.45
2023-02-19T11:52:39.631Z,7.66
2023-02-19T11:55:21.332Z,7.88
2023-02-19T11:57:59.161Z,8.36
2023-02-19T12:00:39.101Z,8.36
2023-02-19T12:03:32.392Z,8.24
2023-02-19T12:06:23.740Z,8.21
2023-02-19T12:09:32.064Z,8.31
2023-02-19T12:12:14.767Z,8.40
2023-02-19T12:15:20.301Z,8.56
2023-02-19T12:18:07.829Z,8.74
2023-02-19T12:20:49.519Z,8.76
2023-02-19T12:23:41.864Z,8.54
2023-02-19T12:26:22.924Z,8.58
2023-02-19T12:29:21.417Z,8.41
2023-02-19T12:32:24.115Z,8.28
2023-02-19T12:35:24.632Z,8.03
2023-02-19T12:38:05.400Z,7.80
2023-02-19T12:40:49.699Z,7.77
2023-02-19T12:43:22.274Z,7.73
2023-02-19T12:45:59.016Z,7.73
2023-02-19T12:48:48.013Z,7.82
2023-02-19T12:51:26.922Z,7.87
2023-02-19T12:54:02.979Z,7.95
2023-02-19T12:56:38.591Z,7.90
2023-02-19T12:59:15.547Z,7.97
2023-02-19T13:01:53.869Z,8.01
2023-02-19T13:04:34.137Z,7.90
2023-02-19T13:07:16.846Z,8.19
2023-02-19T13:09:54.045Z,8.26
2023-02-19T13:12:28.759Z,8.36
2023-02-19T13:15:02.983Z,8.37
2023-02-19T13:17:42.044Z,8.48
2023-02-19T13:20:21.052Z,8.62
2023-02-19T13:23:15.388Z,8.58
2023-02-19T13:26:06.743Z,8.48
2023-02-19T13:28:49.393Z,8.39
2023-02-19T13:31:48.542Z,8.32
2023-02-19T13:34:37.868Z,8.22
2023-02-19T13:37:08.663Z,8.20
2023-02-19T13:39:50.508Z,8.16
2023-02-19T13:42:30.423Z,8.17
2023-02-19T13:45:00.883Z,8.17
2023-02-19T13:47:50.224Z,8.13
2023-02-19T13:50:23.716Z,8.08
2023-02-19T13:52:54.718Z,8.05
2023-02-19T13:55:55.667Z,8.11
2023-02-19T13:58:56.707Z,8.16
2023-02-19T14:01:56.808Z,8.14
2023-02-19T14:04:29.335Z,8.13
2023-02-19T14:07:38.448Z,8.13
2023-02-19T14:10:15.585Z,8.15
2023-02-19T14:12:48.259Z,8.18
2023-02-19T14:15:44.527Z,8.15
2023-02-19T14:18:45.791Z,8.15
2023-02-19T14:21:19.673Z,8.12
2023-02-19T14:23:55.874Z,8.12
2023-02-19T14:26:27.781Z,8.04
2023-02-19T14:29:01.725Z,8.25
2023-02-19T14:31:34.229Z,8.34
2023-02-19T14:34:07.850Z,8.45
2023-02-19T14:36:50.483Z,8.51
2023-02-19T14:39:23.163Z,8.48
2023-02-19T14:41:55.984Z,8.48
2023-02-19T14:44:31.715Z,8.32
2023-02-19T14:47:07.236Z,8.29
2023-02-19T14:49:43.898Z,8.24
2023-02-19T14:52:20.334Z,8.07
2023-02-19T14:54:54.822Z,8.01
2023-02-19T14:57:30.176Z,7.92
2023-02-19T15:00:04.632Z,7.86
2023-02-19T15:02:35.793Z,7.73
2023-02-19T15:05:18.550Z,7.74
2023-02-19T15:07:48.878Z,7.72
2023-02-19T15:10:19.780Z,7.81
2023-02-19T15:12:53.473Z,7.87
2023-02-19T15:15:29.236Z,7.97
2023-02-19T15:18:01.336Z,8.15
2023-02-19T15:20:33.771Z,8.28
2023-02-19T15:23:04.963Z,8.39
2023-02-19T15:25:38.678Z,8.47
2023-02-19T15:28:22.752Z,8.53
2023-02-19T15:31:14.026Z,8.54
2023-02-19T15:33:52.504Z,8.51
2023-02-19T15:36:29.886Z,8.44
2023-02-19T15:39:02.492Z,8.41
2023-02-19T15:41:36.999Z,8.25
2023-02-19T15:44:25.654Z,8.09
2023-02-19T15:47:00.425Z,7.93
2023-02-19T15:49:38.081Z,7.82
2023-02-19T15:52:13.617Z,7.68
2023-02-19T15:54:53.069Z,7.67
2023-02-19T15:57:27.313Z,7.55
2023-02-19T15:59:59.991Z,7.44
2023-02-19T16:02:32.925Z,7.40
2023-02-19T16:05:03.877Z,7.35
2023-02-19T16:07:34.957Z,7.31
2023-02-19T16:10:23.484Z,7.20
2023-02-19T16:13:00.884Z,7.21
2023-02-19T16:15:32.681Z,7.15
2023-02-19T16:18:05.287Z,7.12
2023-02-19T16:20:37.660Z,7.08
2023-02-19T16:23:16.126Z,7.04
2023-02-19T16:25:47.356Z,6.99
2023-02-19T16:28:24.427Z,6.97
2023-02-19T16:30:59.826Z,6.92
2023-02-19T16:33:43.564Z,6.89
2023-02-19T16:36:35.583Z,6.85
2023-02-19T16:39:17.607Z,6.80
2023-02-19T16:42:14.569Z,6.75
2023-02-19T16:44:46.893Z,6.56
2023-02-19T16:47:33.033Z,6.65
2023-02-19T16:50:13.979Z,6.58
2023-02-19T16:52:54.090Z,6.57
2023-02-19T16:55:24.349Z,6.56
2023-02-19T16:57:54.868Z,6.55
2023-02-19T17:00:27.325Z,6.52
2023-02-19T17:02:59.946Z,6.51
2023-02-19T17:05:35.106Z,6.52
2023-02-19T17:08:06.277Z,6.48
2023-02-19T17:10:37.292Z,6.36
2023-02-19T17:13:07.172Z,6.40
2023-02-19T17:15:37.165Z,6.37
2023-02-19T17:18:07.252Z,6.36
2023-02-19T17:20:41.316Z,6.32
2023-02-19T17:23:11.206Z,6.35
2023-02-19T17:25:41.251Z,6.37
2023-02-19T17:28:11.278Z,6.35
2023-02-19T17:30:41.331Z,6.39
2023-02-19T17:33:11.332Z,6.42
2023-02-19T17:35:45.759Z,6.44
2023-02-19T17:38:21.546Z,6.45
2023-02-19T17:40:51.537Z,6.46
2023-02-19T17:43:25.415Z,6.46
2023-02-19T17:45:55.758Z,6.37
2023-02-19T17:48:25.773Z,6.43
2023-02-19T17:50:58.824Z,6.39
2023-02-19T17:53:28.872Z,6.25
2023-02-19T17:55:58.880Z,6.33
2023-02-19T17:58:28.781Z,6.26
2023-02-19T18:00:59.050Z,6.23
2023-02-19T18:03:32.190Z,6.20
2023-02-19T18:06:04.777Z,6.15
2023-02-19T18:08:36.977Z,6.12
2023-02-19T18:11:09.823Z,6.11
2023-02-19T18:13:39.898Z,6.10
2023-02-19T18:16:10.429Z,6.09
2023-02-19T18:18:41.118Z,6.07
2023-02-19T18:21:15.678Z,6.07
2023-02-19T18:23:46.173Z,6.04
2023-02-19T18:26:21.356Z,6.05
2023-02-19T18:28:51.240Z,6.06
2023-02-19T18:31:21.308Z,6.05
2023-02-19T18:33:51.412Z,6.08
2023-02-19T18:36:23.927Z,6.09
2023-02-19T18:38:53.875Z,6.10
2023-02-19T18:41:24.678Z,6.12
2023-02-19T18:43:54.754Z,6.14
2023-02-19T18:46:24.817Z,6.17
2023-02-19T18:48:54.895Z,6.19
2023-02-19T18:51:29.790Z,6.19
2023-02-19T18:54:01.777Z,6.21
2023-02-19T18:56:34.608Z,6.20
2023-02-19T18:59:04.775Z,6.22
2023-02-19T19:01:37.098Z,6.21
2023-02-19T19:04:07.912Z,6.24
2023-02-19T19:06:40.711Z,6.27
2023-02-19T19:09:11.008Z,6.28
2023-02-19T19:11:44.483Z,6.33
2023-02-19T19:14:14.685Z,6.36
2023-02-19T19:16:44.913Z,6.39
2023-02-19T19:19:15.157Z,6.33
2023-02-19T19:21:53.651Z,6.38
2023-02-19T19:24:24.724Z,6.36
2023-02-19T19:26:54.888Z,6.35
2023-02-19T19:29:25.958Z,6.32
2023-02-19T19:31:56.400Z,6.34
2023-02-19T19:34:28.361Z,6.35
2023-02-19T19:37:00.979Z,6.37
2023-02-19T19:39:33.313Z,6.36
2023-02-19T19:42:09.390Z,6.38
2023-02-19T19:44:39.370Z,6.41
2023-02-19T19:47:09.542Z,6.39
2023-02-19T19:49:41.123Z,6.40
2023-02-19T19:52:13.630Z,6.39
2023-02-19T19:54:44.805Z,6.39
2023-02-19T19:57:15.256Z,6.39
2023-02-19T19:59:45.095Z,6.36
2023-02-19T20:02:15.370Z,6.38
2023-02-19T20:04:47.050Z,6.41
2023-02-19T20:07:19.896Z,6.40
2023-02-19T20:09:51.420Z,6.39
2023-02-19T20:12:21.563Z,6.34
2023-02-19T20:14:51.549Z,6.36
2023-02-19T20:17:21.702Z,6.41
2023-02-19T20:19:55.370Z,6.44
2023-02-19T20:22:29.977Z,6.47
2023-02-19T20:24:59.871Z,6.49
2023-02-19T20:27:29.727Z,6.47
2023-02-19T20:30:02.102Z,6.45
2023-02-19T20:32:32.631Z,6.43
2023-02-19T20:35:02.564Z,6.39
2023-02-19T20:37:40.855Z,6.36
2023-02-19T20:40:14.285Z,6.29
2023-02-19T20:42:46.341Z,6.22
2023-02-19T20:45:18.504Z,6.20
2023-02-19T20:47:49.346Z,6.19
2023-02-19T20:50:23.334Z,6.24
2023-02-19T20:53:06.278Z,6.27
2023-02-19T20:55:36.506Z,6.33
2023-02-19T20:58:07.922Z,6.33
2023-02-19T21:00:41.135Z,6.36
2023-02-19T21:03:13.517Z,6.28
2023-02-19T21:05:46.118Z,6.41
2023-02-19T21:08:20.438Z,6.45
2023-02-19T21:10:55.637Z,6.45
2023-02-19T21:13:29.937Z,6.43
2023-02-19T21:16:00.589Z,6.44
2023-02-19T21:18:31.085Z,6.43
2023-02-19T21:21:01.154Z,6.46
2023-02-19T21:23:34.072Z,6.48
2023-02-19T21:26:05.246Z,6.50
2023-02-19T21:28:38.502Z,6.54
2023-02-19T21:31:08.817Z,6.54
2023-02-19T21:33:41.696Z,6.56
2023-02-19T21:36:12.744Z,6.56
2023-02-19T21:38:45.732Z,6.59
2023-02-19T21:41:15.535Z,6.64
2023-02-19T21:43:45.448Z,6.67
2023-02-19T21:46:21.012Z,6.72
2023-02-19T21:48:51.303Z,6.75
2023-02-19T21:51:23.794Z,6.76
2023-02-19T21:53:56.351Z,6.78
2023-02-19T21:56:32.868Z,6.78
2023-02-19T21:59:03.612Z,6.79
2023-02-19T22:01:39.497Z,6.78
2023-02-19T22:04:10.182Z,6.76
2023-02-19T22:06:40.925Z,6.76
2023-02-19T22:09:14.580Z,6.75
2023-02-19T22:11:45.573Z,6.72
2023-02-19T22:14:18.091Z,6.57
2023-02-19T22:16:50.451Z,6.65
2023-02-19T22:19:21.354Z,6.58
2023-02-19T22:21:52.568Z,6.48
2023-02-19T22:24:25.405Z,6.39
2023-02-19T22:26:58.802Z,6.30
2023-02-19T22:29:28.749Z,6.23
2023-02-19T22:32:02.940Z,6.20
2023-02-19T22:34:32.942Z,6.18
2023-02-19T22:37:02.968Z,6.18
2023-02-19T22:39:36.118Z,6.18
2023-02-19T22:42:05.970Z,6.19
2023-02-19T22:44:36.860Z,6.22
2023-02-19T22:47:06.973Z,6.30
2023-02-19T22:49:41.718Z,6.36
2023-02-19T22:52:13.387Z,6.39
2023-02-19T22:55:00.876Z,6.40
2023-02-19T22:57:30.848Z,6.44
2023-02-19T23:00:01.470Z,6.35
2023-02-19T23:02:36.011Z,6.49
2023-02-19T23:05:09.133Z,6.56
2023-02-19T23:07:39.010Z,6.60
2023-02-19T23:10:12.643Z,6.64
2023-02-19T23:12:43.795Z,6.65
2023-02-19T23:15:14.083Z,6.66
2023-02-19T23:17:44.160Z,6.71
2023-02-19T23:20:15.333Z,6.75
2023-02-19T23:22:45.300Z,6.76
2023-02-19T23:25:18.366Z,6.77
2023-02-19T23:27:48.373Z,6.63
2023-02-19T23:30:18.805Z,6.81
2023-02-19T23:32:51.621Z,6.72
2023-02-19T23:35:21.540Z,6.89
2023-02-19T23:37:53.300Z,6.89
2023-02-19T23:40:26.014Z,6.94
2023-02-19T23:42:56.872Z,6.92
2023-02-19T23:45:26.918Z,6.92
2023-02-19T23:47:56.866Z,6.80
2023-02-19T23:50:27.019Z,6.92
2023-02-19T23:52:59.231Z,6.87
2023-02-19T23:55:31.709Z,6.87
2023-02-19T23:58:01.488Z,6.83
